Time;durP1;ratioP1;P1;durP2;ratioP2;P2;SDS_P1;SDS_P2;PMS_P1;PMS_P2;Temp;Humidity;BMP_temperature;BMP_pressure;BME280_temperature;BME280_humidity;BME280_pressure;Samples;Min_cycle;Max_cycle;Signal;HPM_P1;HPM_P2
2022/10/06 00:02:08;;;;;;;39.03;14.73;;;;;;;16.49;51.08;99709.81;4485589;32;20386;-87
2022/10/06 00:04:34;;;;;;;39.38;13.65;;;;;;;16.46;51.23;99702.06;4485692;32;20081;-86
2022/10/06 00:06:59;;;;;;;32.53;12.98;;;;;;;16.44;51.39;99709.28;4486882;32;20372;-86
2022/10/06 00:09:24;;;;;;;34.42;14.27;;;;;;;16.43;51.53;99702.25;4487952;32;20089;-87
2022/10/06 00:11:50;;;;;;;34.80;14.02;;;;;;;16.36;51.96;99700.91;4488030;32;20123;-87
2022/10/06 00:14:15;;;;;;;37.45;13.65;;;;;;;16.37;51.94;99708.81;4473674;32;20088;-87
2022/10/06 00:16:41;;;;;;;36.30;13.40;;;;;;;16.36;52.03;99706.25;4487938;32;20161;-87
2022/10/06 00:19:06;;;;;;;37.28;13.23;;;;;;;16.37;52.20;99705.31;4473685;32;20164;-87
2022/10/06 00:21:32;;;;;;;36.28;13.07;;;;;;;16.40;52.64;99705.97;4487913;32;20083;-88
2022/10/06 00:23:57;;;;;;;35.65;13.35;;;;;;;16.36;53.00;99704.47;4487926;32;20103;-88
2022/10/06 00:26:23;;;;;;;33.92;13.18;;;;;;;16.30;53.31;99699.50;4487775;32;20100;-87
2022/10/06 00:28:49;;;;;;;33.53;12.55;;;;;;;16.25;53.50;99707.78;4473312;32;20444;-88
2022/10/06 00:31:15;;;;;;;37.97;12.90;;;;;;;16.16;53.48;99713.69;4487668;32;20141;-87
2022/10/06 00:33:40;;;;;;;34.60;11.93;;;;;;;16.04;53.56;99711.81;4487534;32;20271;-88
2022/10/06 00:36:07;;;;;;;29.83;11.65;;;;;;;16.05;53.59;99705.50;4487543;32;20467;-87
2022/10/06 00:38:33;;;;;;;30.77;11.85;;;;;;;16.03;53.67;99708.28;4487647;32;20126;-88
2022/10/06 00:40:59;;;;;;;31.20;11.80;;;;;;;15.96;53.91;99711.44;4473378;32;20444;-86
2022/10/06 00:43:41;;;;;;;25.73;9.63;;;;;;;15.94;54.05;99714.19;4487453;32;20119;-86
2022/10/06 00:46:32;;;;;;;30.52;10.40;;;;;;;15.89;54.31;99708.28;4487611;32;20169;-86
2022/10/06 00:49:08;;;;;;;28.05;10.07;;;;;;;15.79;54.76;99704.50;4408012;32;20180;-86
2022/10/06 00:51:35;;;;;;;28.38;10.10;;;;;;;15.71;55.05;99699.62;4407932;32;20311;-86
2022/10/06 00:54:01;;;;;;;30.37;10.15;;;;;;;15.61;55.28;99707.28;4395272;32;20485;-86
2022/10/06 00:56:26;;;;;;;25.92;10.02;;;;;;;15.58;55.30;99701.31;4395251;32;20149;-86
2022/10/06 00:58:52;;;;;;;28.10;9.38;;;;;;;15.59;55.25;99713.63;4407763;32;20126;-86
2022/10/06 01:01:17;;;;;;;30.37;10.90;;;;;;;15.60;55.20;99700.25;4407770;32;20144;-86
2022/10/06 01:03:48;;;;;;;25.75;9.65;;;;;;;15.57;55.30;99702.25;4407692;32;20105;-87
2022/10/06 01:06:13;;;;;;;21.10;8.15;;;;;;;15.52;55.45;99705.19;4395137;32;20185;-85
2022/10/06 01:08:39;;;;;;;23.42;8.45;;;;;;;15.48;55.58;99706.31;4407900;32;20121;-85
2022/10/06 01:11:08;;;;;;;22.55;8.32;;;;;;;15.39;55.64;99710.38;4395126;32;20097;-85
2022/10/06 01:13:33;;;;;;;19.25;7.07;;;;;;;15.29;55.61;99704.75;4395050;32;20477;-85
2022/10/06 01:16:08;;;;;;;22.67;7.93;;;;;;;15.31;55.32;99712.63;4407738;32;20145;-85
2022/10/06 01:18:35;;;;;;;19.60;7.18;;;;;;;15.37;55.18;99706.09;4394391;32;20101;-85
2022/10/06 01:21:07;;;;;;;19.03;7.50;;;;;;;15.22;55.77;99708.75;4407824;32;20636;-85
2022/10/06 01:23:33;;;;;;;20.75;7.82;;;;;;;15.31;55.65;99715.28;4407680;32;20095;-85
2022/10/06 01:26:01;;;;;;;19.08;7.12;;;;;;;15.28;55.93;99712.84;4440953;32;20158;-84
2022/10/06 01:28:26;;;;;;;16.00;5.95;;;;;;;15.21;56.26;99714.13;4473184;32;20116;-84
2022/10/06 01:30:53;;;;;;;18.05;6.25;;;;;;;15.20;56.29;99710.63;4487221;32;20436;-84
2022/10/06 01:33:20;;;;;;;15.43;6.07;;;;;;;15.15;56.35;99712.69;4487286;32;20089;-84
2022/10/06 01:35:49;;;;;;;14.35;5.95;;;;;;;14.95;56.85;99713.88;4473038;32;20155;-84
2022/10/06 01:38:16;;;;;;;13.82;5.37;;;;;;;15.05;56.63;99720.34;4487164;32;20095;-84
2022/10/06 01:40:41;;;;;;;14.77;5.65;;;;;;;15.04;56.52;99725.72;4487221;32;20447;-84
2022/10/06 01:43:07;;;;;;;15.32;6.32;;;;;;;14.87;57.07;99714.31;4487196;32;20088;-84
2022/10/06 01:45:32;;;;;;;14.20;6.22;;;;;;;14.91;57.00;99717.59;4487191;32;20341;-85
2022/10/06 01:47:57;;;;;;;14.55;5.87;;;;;;;14.96;56.97;99723.50;4487242;32;20108;-85
2022/10/06 01:50:23;;;;;;;16.50;5.95;;;;;;;14.93;57.14;99726.34;4487157;32;20364;-85
2022/10/06 01:52:48;;;;;;;17.60;6.57;;;;;;;14.95;57.24;99724.47;4486943;32;20080;-86
2022/10/06 01:55:14;;;;;;;15.35;6.70;;;;;;;14.97;57.30;99727.00;4487053;32;20088;-85
2022/10/06 01:57:40;;;;;;;15.65;6.32;;;;;;;14.80;57.92;99733.31;4472738;32;20127;-85
2022/10/06 02:00:06;;;;;;;15.25;7.03;;;;;;;14.88;57.70;99725.75;4472825;32;20119;-84
2022/10/06 02:02:32;;;;;;;17.33;6.95;;;;;;;14.82;57.79;99734.94;4487014;32;20164;-85
2022/10/06 02:04:58;;;;;;;16.12;6.15;;;;;;;14.81;57.86;99735.00;4486986;32;20140;-85
2022/10/06 02:07:23;;;;;;;14.10;6.40;;;;;;;14.81;57.91;99729.69;4487005;32;20096;-85
2022/10/06 02:09:48;;;;;;;16.02;6.03;;;;;;;14.83;57.94;99736.63;4486956;32;20123;-86
2022/10/06 02:12:14;;;;;;;15.98;7.20;;;;;;;14.82;57.94;99726.97;4486630;32;20162;-84
2022/10/06 02:14:40;;;;;;;15.63;6.25;;;;;;;14.82;57.96;99732.28;4486897;32;20123;-84
2022/10/06 02:17:08;;;;;;;14.55;6.47;;;;;;;14.85;57.88;99731.22;4486924;32;20785;-86
2022/10/06 02:19:34;;;;;;;17.67;7.30;;;;;;;14.82;57.87;99726.97;4486798;32;20212;-86
2022/10/06 02:21:59;;;;;;;18.77;7.18;;;;;;;14.81;57.92;99735.00;4486779;32;20353;-86
2022/10/06 02:24:25;;;;;;;16.77;6.62;;;;;;;14.74;58.14;99737.16;4486918;32;20097;-86
2022/10/06 02:26:50;;;;;;;21.60;7.32;;;;;;;14.72;58.16;99739.91;4486740;32;20469;-86
2022/10/06 02:29:15;;;;;;;16.58;7.03;;;;;;;14.72;58.26;99739.91;4472396;32;20114;-86
2022/10/06 02:31:41;;;;;;;16.42;6.25;;;;;;;14.67;58.36;99738.44;4472484;32;20104;-86
2022/10/06 02:34:06;;;;;;;12.75;5.45;;;;;;;14.63;58.48;99735.09;4486738;32;20097;-85
2022/10/06 02:36:32;;;;;;;16.77;5.75;;;;;;;14.66;58.38;99737.59;4472561;32;20145;-85
2022/10/06 02:38:57;;;;;;;12.63;5.03;;;;;;;14.58;58.39;99737.16;4486660;32;20092;-85
2022/10/06 02:41:22;;;;;;;11.88;5.10;;;;;;;14.57;58.34;99730.16;4472329;32;20085;-86
2022/10/06 02:43:48;;;;;;;14.35;5.72;;;;;;;14.59;58.25;99741.53;4486413;32;20372;-85
2022/10/06 02:46:13;;;;;;;14.07;5.93;;;;;;;14.38;58.77;99734.72;4472289;32;20104;-86
2022/10/06 02:48:39;;;;;;;17.62;6.05;;;;;;;14.52;58.42;99740.97;4472173;32;20129;-85
2022/10/06 02:51:08;;;;;;;14.70;5.80;;;;;;;14.41;58.73;99729.25;4486553;32;20431;-86
2022/10/06 02:53:34;;;;;;;13.75;5.43;;;;;;;14.46;58.59;99733.34;4486453;32;20107;-85
2022/10/06 02:56:05;;;;;;;15.50;5.72;;;;;;;14.50;58.48;99728.75;4472276;32;20100;-86
2022/10/06 02:58:31;;;;;;;11.90;4.93;;;;;;;14.49;58.35;99733.19;4486527;32;20084;-88
2022/10/06 03:01:04;;;;;;;15.02;5.85;;;;;;;14.50;58.32;99734.03;4472226;32;20428;-86
2022/10/06 03:03:30;;;;;;;15.05;6.10;;;;;;;14.53;58.34;99733.87;4486463;32;20123;-86
2022/10/06 03:06:23;;;;;;;14.82;6.45;;;;;;;14.49;58.38;99732.34;4486364;32;20464;-87
2022/10/06 03:09:07;;;;;;;16.02;6.85;;;;;;;14.49;58.47;99727.03;4477826;32;20100;-87
2022/10/06 03:11:35;;;;;;;15.93;6.87;;;;;;;14.49;58.49;99732.34;4486209;32;20164;-87
2022/10/06 03:14:01;;;;;;;16.00;6.32;;;;;;;14.47;58.67;99727.13;4471895;32;20153;-86
2022/10/06 03:16:28;;;;;;;14.98;6.72;;;;;;;14.50;58.66;99734.87;4486276;32;20092;-87
2022/10/06 03:18:57;;;;;;;15.20;6.15;;;;;;;14.50;58.63;99739.34;4486149;32;20115;-84
2022/10/06 03:21:25;;;;;;;15.50;6.32;;;;;;;14.48;58.66;99734.13;4486101;32;20080;-84
2022/10/06 03:23:52;;;;;;;13.95;6.43;;;;;;;14.47;58.68;99731.59;4486334;32;20118;-84
2022/10/06 03:26:19;;;;;;;14.33;5.90;;;;;;;14.45;58.78;99736.13;4486164;32;20119;-84
2022/10/06 03:28:45;;;;;;;14.27;6.15;;;;;;;14.48;58.73;99734.13;4486331;32;20486;-85
2022/10/06 03:31:11;;;;;;;14.80;6.32;;;;;;;14.50;58.61;99732.25;4486259;32;20163;-85
2022/10/06 03:33:36;;;;;;;16.30;6.22;;;;;;;14.45;58.70;99736.13;4483956;32;20152;-83
2022/10/06 03:36:04;;;;;;;13.98;5.43;;;;;;;14.44;58.70;99732.59;4483048;32;20089;-83
2022/10/06 03:38:33;;;;;;;18.75;7.07;;;;;;;14.45;58.61;99738.75;4471407;32;20163;-85
2022/10/06 03:41:06;;;;;;;14.10;6.32;;;;;;;14.25;59.20;99738.03;4456097;32;20395;-83
2022/10/06 03:43:32;;;;;;;14.93;5.90;;;;;;;14.30;59.21;99746.59;4470948;32;20181;-80
2022/10/06 03:45:59;;;;;;;13.23;5.68;;;;;;;14.38;58.92;99734.72;4472405;32;20137;-80
2022/10/06 03:48:26;;;;;;;15.60;5.32;;;;;;;14.37;58.87;99725.94;4458180;32;20092;-79
2022/10/06 03:51:00;;;;;;;15.02;5.65;;;;;;;14.39;58.83;99725.81;4471043;32;20152;-79
2022/10/06 03:53:29;;;;;;;11.98;5.53;;;;;;;14.41;58.80;99727.47;4458079;32;20134;-80
2022/10/06 03:56:07;;;;;;;13.07;5.35;;;;;;;14.36;58.87;99729.50;4472319;32;20088;-79
2022/10/06 03:58:34;;;;;;;12.18;5.18;;;;;;;14.37;58.88;99733.87;4472309;32;20088;-80
2022/10/06 04:01:08;;;;;;;14.02;5.50;;;;;;;14.36;58.85;99734.81;4472565;32;20107;-80
2022/10/06 04:03:34;;;;;;;13.62;5.07;;;;;;;14.25;59.09;99740.69;4473640;32;20126;-79
2022/10/06 04:06:01;;;;;;;13.43;5.40;;;;;;;14.28;59.02;99743.19;4473510;32;20096;-78
2022/10/06 04:08:28;;;;;;;13.88;5.35;;;;;;;14.30;58.97;99746.59;4472569;32;20460;-81
2022/10/06 04:10:54;;;;;;;13.13;5.72;;;;;;;14.31;58.97;99742.16;4458145;32;20080;-80
2022/10/06 04:13:20;;;;;;;14.55;6.12;;;;;;;14.22;59.16;99742.69;4487733;32;20364;-81
2022/10/06 04:15:46;;;;;;;15.57;6.75;;;;;;;14.20;59.27;99741.87;4473538;32;20119;-81
2022/10/06 04:18:13;;;;;;;14.52;6.40;;;;;;;14.18;59.40;99747.28;4461652;32;20115;-80
2022/10/06 04:20:38;;;;;;;14.93;6.37;;;;;;;14.19;59.42;99750.78;4472255;32;20137;-80
2022/10/06 04:23:04;;;;;;;14.05;6.03;;;;;;;14.14;59.59;99753.69;4484020;32;20100;-80
2022/10/06 04:25:30;;;;;;;15.07;5.62;;;;;;;14.18;59.48;99754.34;4487796;32;20137;-80
2022/10/06 04:27:56;;;;;;;14.43;5.82;;;;;;;14.23;59.35;99761.12;4488029;32;20116;-81
2022/10/06 04:30:22;;;;;;;14.73;5.65;;;;;;;14.20;59.31;99758.66;4487924;32;20560;-80
2022/10/06 04:32:47;;;;;;;15.63;5.78;;;;;;;14.20;59.31;99757.78;4473723;32;20085;-81
2022/10/06 04:35:13;;;;;;;13.48;5.22;;;;;;;14.21;59.23;99759.50;4487724;32;20133;-81
2022/10/06 04:37:39;;;;;;;15.05;5.28;;;;;;;14.22;59.17;99761.22;4487378;32;20344;-81
2022/10/06 04:40:05;;;;;;;13.40;5.20;;;;;;;14.23;59.17;99760.28;4472195;32;20120;-80
2022/10/06 04:42:30;;;;;;;13.27;5.40;;;;;;;14.20;59.15;99761.31;4487308;32;20116;-80
2022/10/06 04:44:56;;;;;;;12.50;5.35;;;;;;;14.18;59.21;99755.22;4487302;32;20111;-80
2022/10/06 04:47:21;;;;;;;11.63;5.03;;;;;;;14.15;59.19;99750.94;4472765;32;20111;-80
2022/10/06 04:49:46;;;;;;;12.75;5.00;;;;;;;14.00;59.53;99750.91;4472565;32;20080;-80
2022/10/06 04:52:12;;;;;;;14.77;5.72;;;;;;;14.03;59.56;99743.66;4486932;32;20084;-80
2022/10/06 04:54:37;;;;;;;14.05;6.10;;;;;;;14.00;59.84;99758.84;4486746;32;20115;-80
2022/10/06 04:57:03;;;;;;;17.48;7.93;;;;;;;13.98;60.03;99742.19;4487454;32;20080;-80
2022/10/06 05:02:12;;;;;;;18.23;8.60;;;;;;;14.08;60.29;99741.63;4464270;32;20116;-80
2022/10/06 05:04:38;;;;;;;17.83;8.23;;;;;;;14.06;60.63;99747.91;4473206;32;20105;-80
2022/10/06 05:07:04;;;;;;;18.37;9.00;;;;;;;14.12;60.71;99748.47;4473250;32;20084;-79
2022/10/06 05:09:30;;;;;;;16.30;7.62;;;;;;;14.19;60.62;99746.31;4460115;32;20127;-79
2022/10/06 05:11:55;;;;;;;18.17;8.38;;;;;;;14.24;60.52;99743.44;4473022;32;20143;-79
2022/10/06 05:14:21;;;;;;;19.05;8.57;;;;;;;14.27;60.42;99752.06;4487358;32;20128;-80
2022/10/06 05:16:46;;;;;;;20.30;8.25;;;;;;;14.30;60.38;99754.56;4460039;32;20080;-80
2022/10/06 05:19:12;;;;;;;17.25;8.68;;;;;;;14.31;60.35;99753.62;4487197;32;20563;-79
2022/10/06 05:21:37;;;;;;;20.08;8.95;;;;;;;14.34;60.38;99752.59;4487289;32;20122;-79
2022/10/06 05:24:03;;;;;;;18.87;9.13;;;;;;;14.49;60.25;99751.75;4487160;32;20119;-80
2022/10/06 05:26:30;;;;;;;19.42;9.15;;;;;;;14.57;60.21;99753.16;4472885;32;20080;-80
2022/10/06 05:28:56;;;;;;;19.50;9.50;;;;;;;14.67;60.12;99755.19;4473147;32;20482;-80
2022/10/06 05:31:31;;;;;;;20.70;9.65;;;;;;;14.83;59.73;99757.00;4487289;32;20124;-79
2022/10/06 05:33:58;;;;;;;21.48;10.07;;;;;;;14.90;59.66;99758.38;4473197;32;20471;-80
2022/10/06 05:36:25;;;;;;;19.45;9.38;;;;;;;14.45;60.52;99760.81;4487278;32;20088;-80
2022/10/06 05:38:51;;;;;;;17.55;8.50;;;;;;;14.92;59.40;99765.28;4487202;32;20111;-80
2022/10/06 05:41:17;;;;;;;15.52;8.45;;;;;;;15.10;59.15;99762.50;4487260;32;20100;-79
2022/10/06 05:43:43;;;;;;;21.10;8.68;;;;;;;15.30;58.73;99764.03;4472937;32;20126;-79
2022/10/06 05:46:28;;;;;;;19.50;8.73;;;;;;;15.34;58.56;99763.75;4487326;32;20084;-82
2022/10/06 05:49:04;;;;;;;20.37;8.30;;;;;;;15.52;57.98;99760.97;4487425;32;20106;-82
2022/10/06 05:51:32;;;;;;;17.48;8.68;;;;;;;15.71;57.29;99758.91;4473519;32;20460;-82
2022/10/06 05:53:58;;;;;;;17.37;8.40;;;;;;;15.85;56.59;99763.41;4487417;32;20107;-79
2022/10/06 05:56:28;;;;;;;19.37;8.20;;;;;;;15.87;56.38;99761.50;4487448;32;20088;-83
2022/10/06 05:58:55;;;;;;;17.20;7.80;;;;;;;15.93;56.02;99770.91;4473141;32;20694;-82
2022/10/06 06:01:51;;;;;;;17.65;8.25;;;;;;;16.02;55.97;99761.53;4472985;32;20116;-83
2022/10/06 06:04:16;;;;;;;17.33;7.60;;;;;;;16.04;55.88;99764.97;4467285;32;20164;-83
2022/10/06 06:06:43;;;;;;;16.15;7.03;;;;;;;16.09;55.59;99768.19;4471041;32;20391;-81
2022/10/06 06:09:14;;;;;;;18.40;8.52;;;;;;;16.04;55.81;99767.63;4486400;32;20503;-81
2022/10/06 06:11:47;;;;;;;19.02;7.68;;;;;;;16.17;55.54;99770.34;4470543;32;20472;-81
2022/10/06 06:14:15;;;;;;;20.48;8.25;;;;;;;16.25;55.22;99768.94;4471794;32;20456;-82
2022/10/06 06:16:41;;;;;;;18.92;8.43;;;;;;;16.28;55.19;99773.19;4486139;32;20459;-83
2022/10/06 06:19:08;;;;;;;18.42;8.00;;;;;;;16.36;54.73;99770.06;4486233;32;20072;-86
2022/10/06 06:21:33;;;;;;;17.80;8.15;;;;;;;16.34;54.79;99786.13;4472479;32;20112;-84
2022/10/06 06:23:59;;;;;;;15.50;6.72;;;;;;;16.38;54.64;99785.00;4472161;32;20130;-82
2022/10/06 06:26:26;;;;;;;16.30;7.68;;;;;;;16.33;54.47;99787.06;4485398;32;20118;-79
2022/10/06 06:28:53;;;;;;;18.65;7.50;;;;;;;16.29;54.67;99791.72;4471867;32;20469;-83
2022/10/06 06:31:25;;;;;;;19.90;8.73;;;;;;;16.30;54.46;99800.53;4472497;32;20105;-82
2022/10/06 06:33:53;;;;;;;15.00;6.10;;;;;;;16.30;54.06;99796.09;4472986;32;20439;-84
2022/10/06 06:36:30;;;;;;;15.48;6.20;;;;;;;16.20;54.42;99805.56;4472643;32;20459;-88
2022/10/06 06:38:57;;;;;;;19.48;6.97;;;;;;;16.26;54.59;99818.53;4472632;32;20103;-83
2022/10/06 06:41:27;;;;;;;17.75;7.37;;;;;;;16.23;54.65;99812.53;4460230;32;20573;-82
2022/10/06 06:43:54;;;;;;;15.73;8.00;;;;;;;16.08;55.05;99819.63;4472764;32;20569;-91
2022/10/06 06:46:24;;;;;;;15.88;7.65;;;;;;;16.07;55.22;99817.91;4473338;32;20199;-83
2022/10/06 06:48:51;;;;;;;18.80;6.65;;;;;;;16.19;55.17;99821.66;4486643;32;20160;-84
2022/10/06 06:51:18;;;;;;;16.95;6.55;;;;;;;16.19;55.27;99822.50;4472028;32;20116;-84
2022/10/06 06:53:43;;;;;;;16.70;6.72;;;;;;;16.22;55.39;99819.63;4486166;32;20160;-85
2022/10/06 06:56:09;;;;;;;16.37;7.00;;;;;;;16.19;55.51;99822.50;4459181;32;20088;-85
2022/10/06 06:58:35;;;;;;;18.35;7.70;;;;;;;16.16;55.66;99819.16;4486180;32;20100;-86
2022/10/06 07:01:13;;;;;;;15.23;6.90;;;;;;;16.25;55.66;99818.59;4471601;32;20745;-86
2022/10/06 07:04:00;;;;;;;16.42;7.30;;;;;;;16.28;55.65;99826.37;4485894;32;20133;-87
2022/10/06 07:06:27;;;;;;;17.20;7.43;;;;;;;16.19;55.82;99830.47;4472753;32;20115;-85
2022/10/06 07:08:53;;;;;;;15.50;6.97;;;;;;;16.14;56.08;99829.03;4486005;32;20104;-84
2022/10/06 07:11:22;;;;;;;17.42;6.80;;;;;;;16.19;55.88;99835.78;4486071;32;20152;-83
2022/10/06 07:13:54;;;;;;;18.23;7.22;;;;;;;16.16;55.99;99838.63;4486283;32;20091;-85
2022/10/06 07:27:23;;;;;;;21.33;9.02;;;;;;;16.06;56.66;99848.97;4486564;32;20121;-84
2022/10/06 07:29:53;;;;;;;19.52;8.75;;;;;;;16.09;56.44;99853.25;4487225;32;20463;-84
2022/10/06 07:32:23;;;;;;;17.77;8.43;;;;;;;16.22;56.03;99846.22;4487142;32;20101;-84
2022/10/06 07:34:48;;;;;;;16.95;8.20;;;;;;;16.03;57.08;99849.16;4472822;32;20127;-84
2022/10/06 07:37:24;;;;;;;20.45;8.93;;;;;;;16.02;57.34;99849.25;4473823;32;20148;-84
2022/10/06 07:39:49;;;;;;;19.08;8.40;;;;;;;16.30;56.55;99846.63;4473928;32;20122;-84
2022/10/06 07:42:16;;;;;;;20.20;9.35;;;;;;;16.42;56.72;99849.47;4473689;32;20456;-84
2022/10/06 07:44:42;;;;;;;18.62;9.00;;;;;;;16.50;56.70;99848.03;4473685;32;20109;-84
2022/10/06 07:47:08;;;;;;;20.48;9.63;;;;;;;16.58;56.21;99852.03;4473643;32;20084;-84
2022/10/06 07:49:33;;;;;;;20.77;10.20;;;;;;;16.74;55.52;99852.78;4487951;32;20103;-84
2022/10/06 07:51:59;;;;;;;18.85;8.85;;;;;;;16.59;55.33;99851.94;4487905;32;20104;-84
2022/10/06 07:54:28;;;;;;;20.80;10.65;;;;;;;16.89;54.97;99851.84;4473714;32;20411;-84
2022/10/06 07:56:53;;;;;;;17.83;8.80;;;;;;;17.02;54.99;99859.06;4488061;32;20420;-84
2022/10/06 07:59:19;;;;;;;18.83;9.38;;;;;;;17.10;54.64;99856.75;4473662;32;20104;-84
2022/10/06 08:01:44;;;;;;;18.15;9.25;;;;;;;17.18;55.02;99853.59;4487906;32;20112;-84
2022/10/06 08:04:11;;;;;;;18.85;8.73;;;;;;;17.32;54.55;99858.00;4473474;32;20088;-84
2022/10/06 08:06:37;;;;;;;21.85;9.60;;;;;;;17.41;54.20;99854.75;4487752;32;20111;-84
2022/10/06 08:09:03;;;;;;;20.08;9.77;;;;;;;17.54;53.95;99870.75;4460492;32;20148;-84
2022/10/06 08:11:29;;;;;;;18.60;9.43;;;;;;;17.58;53.91;99861.63;4487892;32;20089;-84
2022/10/06 08:13:54;;;;;;;19.40;10.13;;;;;;;17.60;54.01;99870.38;4473467;32;20122;-84
2022/10/06 08:16:23;;;;;;;20.45;10.15;;;;;;;17.65;54.14;99866.44;4473455;32;20465;-84
2022/10/06 08:18:52;;;;;;;19.98;9.80;;;;;;;17.73;53.70;99865.94;4487723;32;20527;-84
2022/10/06 08:21:20;;;;;;;21.90;10.80;;;;;;;17.89;53.30;99865.78;4473546;32;20143;-84
2022/10/06 08:23:46;;;;;;;22.77;11.38;;;;;;;17.88;52.71;99864.06;4473552;32;20571;-84
2022/10/06 08:26:13;;;;;;;20.37;11.25;;;;;;;17.91;52.26;99865.69;4487867;32;20106;-84
2022/10/06 08:28:43;;;;;;;24.67;12.03;;;;;;;18.00;52.06;99859.69;4460446;32;20150;-84
2022/10/06 08:31:10;;;;;;;25.88;11.77;;;;;;;17.73;53.10;99863.28;4473502;32;20120;-84
2022/10/06 08:33:37;;;;;;;25.75;13.60;;;;;;;18.04;52.60;99870.06;4473638;32;20084;-84
2022/10/06 08:36:08;;;;;;;25.00;12.77;;;;;;;17.30;53.66;99869.59;4487577;32;20495;-84
2022/10/06 08:38:35;;;;;;;23.27;12.45;;;;;;;17.86;52.53;99866.81;4487602;32;20103;-84
2022/10/06 08:41:01;;;;;;;36.97;13.57;;;;;;;17.90;52.67;99863.97;4473482;32;20089;-84
2022/10/06 08:43:27;;;;;;;28.30;13.43;;;;;;;17.88;53.11;99864.06;4487554;32;20132;-84
2022/10/06 08:45:58;;;;;;;27.65;13.68;;;;;;;17.86;53.09;99868.66;4473175;32;20088;-84
2022/10/06 08:48:28;;;;;;;25.75;13.75;;;;;;;18.12;51.90;99874.00;4473624;32;20080;-84
2022/10/06 08:51:14;;;;;;;23.95;12.82;;;;;;;18.23;51.54;99880.34;4487984;32;20093;-84
2022/10/06 08:53:53;;;;;;;26.12;13.80;;;;;;;18.14;51.86;99878.28;4473627;32;20123;-84
2022/10/06 08:56:31;;;;;;;22.80;13.50;;;;;;;18.37;51.26;99875.84;4473249;32;20452;-84
2022/10/06 08:59:02;;;;;;;22.58;12.93;;;;;;;18.52;51.16;99876.59;4473399;32;20072;-84
2022/10/06 09:01:32;;;;;;;26.58;13.30;;;;;;;18.60;50.80;99868.88;4473447;32;20481;-84
2022/10/06 09:04:04;;;;;;;27.77;13.75;;;;;;;18.57;50.96;99871.78;4460484;32;20114;-84
2022/10/06 09:06:45;;;;;;;26.37;12.95;;;;;;;18.76;50.40;99864.19;4474113;32;20080;-84
2022/10/06 09:09:16;;;;;;;25.30;14.05;;;;;;;18.88;50.48;99873.16;4473222;32;20144;-84
2022/10/06 09:11:54;;;;;;;27.27;14.45;;;;;;;18.49;51.36;99869.66;4487420;32;20119;-84
2022/10/06 09:14:27;;;;;;;24.85;13.93;;;;;;;18.42;51.05;99877.22;4487556;32;20084;-84
2022/10/06 09:16:59;;;;;;;23.23;13.35;;;;;;;18.84;50.70;99869.84;4487194;32;20155;-84
2022/10/06 09:19:45;;;;;;;27.30;13.65;;;;;;;18.75;51.15;99865.13;4473463;32;20375;-84
2022/10/06 09:22:19;;;;;;;27.33;14.52;;;;;;;19.08;50.61;99868.19;4472675;32;20440;-84
2022/10/06 09:24:49;;;;;;;24.00;13.90;;;;;;;19.22;49.65;99874.25;4473218;32;20127;-84
2022/10/06 09:27:17;;;;;;;23.85;13.60;;;;;;;19.27;49.51;99879.22;4473664;32;20435;-84
2022/10/06 09:29:43;;;;;;;30.85;14.93;;;;;;;19.49;49.06;99869.63;4487291;32;20072;-84
2022/10/06 09:32:09;;;;;;;24.75;12.57;;;;;;;19.54;48.93;99876.34;4487282;32;20140;-84
2022/10/06 09:34:39;;;;;;;25.10;12.32;;;;;;;19.69;48.65;99874.34;4473067;32;20122;-85
2022/10/06 09:37:08;;;;;;;22.30;12.68;;;;;;;19.87;48.31;99876.63;4487381;32;20762;-84
2022/10/06 09:39:38;;;;;;;24.37;12.27;;;;;;;20.08;47.61;99876.81;4486552;32;20107;-85
2022/10/06 09:42:06;;;;;;;23.55;13.05;;;;;;;20.08;47.61;99879.50;4487137;32;20473;-85
2022/10/06 09:44:50;;;;;;;23.45;12.40;;;;;;;20.21;47.25;99882.94;4487291;32;20507;-84
2022/10/06 09:47:27;;;;;;;20.05;10.77;;;;;;;20.35;46.72;99879.19;4487051;32;20108;-84
2022/10/06 09:50:03;;;;;;;20.00;11.57;;;;;;;20.43;46.71;99884.78;4487183;32;20094;-85
2022/10/06 09:52:28;;;;;;;27.62;11.93;;;;;;;20.61;46.45;99885.22;4472951;32;20155;-84
2022/10/06 09:55:14;;;;;;;21.98;10.48;;;;;;;20.66;45.69;99877.66;4472913;32;20432;-85
2022/10/06 09:57:51;;;;;;;20.10;10.50;;;;;;;20.79;46.28;99882.88;4487171;32;20495;-84
2022/10/06 10:00:34;;;;;;;21.67;10.13;;;;;;;20.87;45.57;99882.28;4472829;32;20072;-85
2022/10/06 10:03:12;;;;;;;18.08;10.10;;;;;;;20.98;45.36;99885.78;4472914;32;20097;-85
2022/10/06 10:05:44;;;;;;;18.95;10.48;;;;;;;21.12;45.02;99890.03;4460354;32;20423;-84
2022/10/06 10:08:13;;;;;;;18.52;9.45;;;;;;;21.14;44.90;99887.25;4487175;32;20076;-84
2022/10/06 10:10:39;;;;;;;17.85;8.88;;;;;;;21.19;44.99;99885.03;4486946;32;20458;-84
2022/10/06 10:13:25;;;;;;;19.17;10.23;;;;;;;21.34;44.56;99877.56;4472757;32;20101;-85
2022/10/06 10:15:57;;;;;;;20.75;9.45;;;;;;;21.37;44.28;99874.62;4487470;32;20121;-84
2022/10/06 10:18:29;;;;;;;19.15;9.88;;;;;;;21.07;44.61;99875.31;4472710;32;20110;-84
2022/10/06 10:21:09;;;;;;;19.90;9.77;;;;;;;21.11;44.48;99874.06;4473204;32;20072;-84
2022/10/06 10:23:35;;;;;;;18.02;9.10;;;;;;;21.28;44.27;99878.06;4486888;32;20108;-84
2022/10/06 10:26:25;;;;;;;18.50;10.13;;;;;;;21.07;45.08;99880.66;4472585;32;20133;-84
2022/10/06 10:29:14;;;;;;;17.65;9.65;;;;;;;21.11;45.15;99872.28;4486869;32;20076;-84
2022/10/06 10:32:01;;;;;;;17.25;8.88;;;;;;;20.83;45.33;99872.78;4472623;32;20088;-85
2022/10/06 10:34:32;;;;;;;16.77;8.73;;;;;;;20.90;45.84;99866.81;4486928;32;20110;-85
2022/10/06 10:37:23;;;;;;;18.37;8.98;;;;;;;20.95;46.00;99866.44;4486942;32;20068;-84
2022/10/06 10:39:52;;;;;;;21.48;8.85;;;;;;;21.02;45.73;99860.47;4478528;32;20360;-84
2022/10/06 10:42:46;;;;;;;19.83;8.98;;;;;;;20.93;46.03;99860.34;4472421;32;20076;-85
2022/10/06 10:45:17;;;;;;;17.55;9.27;;;;;;;20.99;45.81;99866.06;4472645;32;20111;-84
2022/10/06 10:47:44;;;;;;;18.17;9.23;;;;;;;21.02;45.73;99862.28;4486692;32;20634;-84
2022/10/06 10:50:22;;;;;;;17.55;9.32;;;;;;;20.93;45.69;99868.38;4472439;32;20080;-84
2022/10/06 10:52:49;;;;;;;19.83;9.70;;;;;;;21.00;46.05;99865.09;4472463;32;20081;-84
2022/10/06 10:55:18;;;;;;;16.08;9.00;;;;;;;21.00;46.32;99858.88;4486828;32;20348;-84
2022/10/06 10:57:44;;;;;;;20.70;10.00;;;;;;;21.04;46.64;99868.38;4486486;32;20148;-84
2022/10/06 11:00:24;;;;;;;18.58;9.48;;;;;;;21.01;46.47;99865.94;4472310;32;20071;-85
2022/10/06 11:02:53;;;;;;;20.50;9.82;;;;;;;21.03;46.50;99869.34;4472276;32;20407;-85
2022/10/06 11:05:44;;;;;;;18.33;8.27;;;;;;;21.00;46.61;99867.78;4472339;32;20127;-85
2022/10/06 11:08:15;;;;;;;21.52;10.05;;;;;;;21.05;46.68;99871.91;4486491;32;20092;-84
2022/10/06 11:10:47;;;;;;;18.00;9.10;;;;;;;21.05;46.81;99866.53;4472265;32;20071;-84
2022/10/06 11:13:24;;;;;;;15.52;8.55;;;;;;;21.12;47.06;99868.59;4472394;32;20072;-84
2022/10/06 11:15:57;;;;;;;17.50;8.68;;;;;;;20.92;46.95;99861.31;4472035;32;20123;-84
2022/10/06 11:18:23;;;;;;;19.37;8.95;;;;;;;21.13;46.97;99858.72;4486350;32;20096;-84
2022/10/06 11:20:54;;;;;;;17.58;8.30;;;;;;;20.97;47.39;99865.31;4486225;32;20088;-85
2022/10/06 11:23:34;;;;;;;19.40;8.52;;;;;;;21.08;47.24;99863.63;4486228;32;20110;-84
2022/10/06 11:26:34;;;;;;;16.55;8.13;;;;;;;21.02;47.43;99860.47;4471728;32;20092;-84
2022/10/06 11:29:12;;;;;;;16.05;8.57;;;;;;;21.00;47.46;99862.41;4486229;32;20096;-85
2022/10/06 11:31:59;;;;;;;20.80;8.88;;;;;;;21.07;47.21;99864.59;4486108;32;20084;-85
2022/10/06 11:34:24;;;;;;;20.10;8.80;;;;;;;21.04;47.16;99854.97;4485904;32;20072;-85
2022/10/06 11:37:11;;;;;;;15.35;7.97;;;;;;;21.05;47.33;99856.66;4485891;32;20165;-84
2022/10/06 11:40:13;;;;;;;19.37;8.50;;;;;;;20.96;48.07;99852.94;4486149;32;20172;-85
2022/10/06 11:42:51;;;;;;;17.62;7.82;;;;;;;21.08;47.88;99851.06;4485885;32;20409;-84
2022/10/06 11:45:21;;;;;;;19.35;8.98;;;;;;;21.11;47.94;99848.16;4485935;32;20092;-85
2022/10/06 11:47:50;;;;;;;16.95;7.45;;;;;;;21.24;47.61;99841.78;4471764;32;20503;-85
2022/10/06 11:50:39;;;;;;;16.05;7.55;;;;;;;21.50;47.21;99835.16;4485811;32;20115;-85